createdAt,value
2022-09-23T00:01:15.266Z,12.18
2022-09-23T00:03:45.512Z,12.21
2022-09-23T00:06:15.576Z,12.22
2022-09-23T00:08:43.811Z,12.25
2022-09-23T00:11:22.523Z,12.23
2022-09-23T00:13:51.738Z,12.13
2022-09-23T00:16:36.655Z,12.08
2022-09-23T00:19:04.778Z,12.04
2022-09-23T00:21:31.434Z,12.22
2022-09-23T00:23:58.004Z,12.13
2022-09-23T00:26:25.503Z,12.06
2022-09-23T00:28:52.633Z,12.12
2022-09-23T00:31:26.081Z,12.14
2022-09-23T00:33:54.871Z,12.10
2022-09-23T00:36:21.492Z,12.13
2022-09-23T00:38:48.071Z,12.07
2022-09-23T00:41:17.818Z,11.96
2022-09-23T00:43:53.595Z,12.07
2022-09-23T00:46:29.855Z,12.05
2022-09-23T00:49:02.162Z,12.04
2022-09-23T00:51:35.797Z,11.93
2022-09-23T00:54:03.383Z,12.01
2022-09-23T00:56:32.254Z,11.87
2022-09-23T00:59:00.563Z,11.99
2022-09-23T01:01:27.226Z,12.00
2022-09-23T01:03:55.327Z,11.96
2022-09-23T01:06:22.782Z,11.96
2022-09-23T01:08:49.771Z,11.95
2022-09-23T01:11:16.267Z,11.95
2022-09-23T01:14:20.844Z,11.93
2022-09-23T01:16:51.223Z,11.88
2022-09-23T01:19:27.809Z,11.94
2022-09-23T01:22:04.990Z,11.94
2022-09-23T01:25:05.716Z,11.90
2022-09-23T01:27:52.281Z,11.87
2022-09-23T01:30:47.919Z,11.78
2022-09-23T01:33:23.104Z,11.78
2022-09-23T01:36:12.101Z,11.58
2022-09-23T01:38:44.814Z,11.67
2022-09-23T01:41:24.239Z,11.67
2022-09-23T01:43:56.426Z,11.74
2022-09-23T01:46:42.914Z,11.76
2022-09-23T01:49:15.042Z,11.77
2022-09-23T01:51:51.117Z,11.76
2022-09-23T01:54:32.784Z,11.73
2022-09-23T01:57:16.958Z,11.73
2022-09-23T01:59:50.114Z,11.75
2022-09-23T02:02:33.411Z,11.73
2022-09-23T02:05:11.550Z,11.74
2022-09-23T02:07:47.099Z,11.69
2022-09-23T02:10:20.572Z,11.62
2022-09-23T02:12:50.711Z,11.72
2022-09-23T02:15:21.201Z,11.78
2022-09-23T02:17:54.818Z,11.73
2022-09-23T02:20:42.120Z,11.76
2022-09-23T02:23:15.472Z,11.75
2022-09-23T02:26:03.201Z,11.70
2022-09-23T02:28:38.944Z,11.74
2022-09-23T02:31:12.166Z,11.73
2022-09-23T02:33:47.029Z,11.75
2022-09-23T02:36:26.108Z,11.77
2022-09-23T02:38:58.227Z,11.79
2022-09-23T02:41:36.828Z,11.80
2022-09-23T02:44:11.742Z,11.78
